sensor_id;sensor_type;location;lat;lon;timestamp;P1;durP1;ratioP1;P2;durP2;ratioP2
70694;SDS011;58269;52.246;21.104;2023-12-20T00:01:49;14.00;;;9.80;;
70694;SDS011;58269;52.246;21.104;2023-12-20T00:03:51;14.80;;;10.00;;
70694;SDS011;58269;52.246;21.104;2023-12-20T00:05:52;11.70;;;9.20;;
70694;SDS011;58269;52.246;21.104;2023-12-20T00:07:54;12.30;;;8.30;;
70694;SDS011;58269;52.246;21.104;2023-12-20T00:09:56;11.90;;;8.10;;
70694;SDS011;58269;52.246;21.104;2023-12-20T00:11:58;10.30;;;7.70;;
70694;SDS011;58269;52.246;21.104;2023-12-20T00:14:00;11.70;;;8.00;;
70694;SDS011;58269;52.246;21.104;2023-12-20T00:16:02;12.40;;;7.50;;
70694;SDS011;58269;52.246;21.104;2023-12-20T00:18:04;12.30;;;8.30;;
70694;SDS011;58269;52.246;21.104;2023-12-20T00:20:07;13.40;;;8.80;;
70694;SDS011;58269;52.246;21.104;2023-12-20T00:22:09;11.50;;;8.00;;
70694;SDS011;58269;52.246;21.104;2023-12-20T00:24:11;9.50;;;7.10;;
70694;SDS011;58269;52.246;21.104;2023-12-20T00:26:12;10.20;;;7.40;;
70694;SDS011;58269;52.246;21.104;2023-12-20T00:28:14;11.30;;;7.50;;
70694;SDS011;58269;52.246;21.104;2023-12-20T00:30:16;13.70;;;8.00;;
70694;SDS011;58269;52.246;21.104;2023-12-20T00:32:18;10.70;;;7.80;;
70694;SDS011;58269;52.246;21.104;2023-12-20T00:34:20;10.70;;;7.40;;
70694;SDS011;58269;52.246;21.104;2023-12-20T00:36:21;11.10;;;7.00;;
70694;SDS011;58269;52.246;21.104;2023-12-20T00:38:23;10.70;;;7.30;;
70694;SDS011;58269;52.246;21.104;2023-12-20T00:40:25;10.50;;;7.40;;
70694;SDS011;58269;52.246;21.104;2023-12-20T00:42:27;9.60;;;6.60;;
70694;SDS011;58269;52.246;21.104;2023-12-20T00:44:29;9.30;;;6.90;;
70694;SDS011;58269;52.246;21.104;2023-12-20T00:46:30;8.80;;;7.60;;
70694;SDS011;58269;52.246;21.104;2023-12-20T00:48:32;12.40;;;7.60;;
70694;SDS011;58269;52.246;21.104;2023-12-20T00:50:34;9.50;;;6.70;;
70694;SDS011;58269;52.246;21.104;2023-12-20T00:52:36;9.50;;;7.30;;
70694;SDS011;58269;52.246;21.104;2023-12-20T00:54:38;10.90;;;7.00;;
70694;SDS011;58269;52.246;21.104;2023-12-20T00:56:40;9.00;;;6.50;;
70694;SDS011;58269;52.246;21.104;2023-12-20T00:58:42;8.90;;;6.20;;
70694;SDS011;58269;52.246;21.104;2023-12-20T01:00:44;11.10;;;7.40;;
70694;SDS011;58269;52.246;21.104;2023-12-20T01:02:46;9.90;;;6.80;;
70694;SDS011;58269;52.246;21.104;2023-12-20T01:04:50;11.20;;;7.40;;
70694;SDS011;58269;52.246;21.104;2023-12-20T01:06:52;9.80;;;6.80;;
70694;SDS011;58269;52.246;21.104;2023-12-20T01:08:54;7.80;;;6.70;;
70694;SDS011;58269;52.246;21.104;2023-12-20T01:10:55;9.30;;;6.50;;
70694;SDS011;58269;52.246;21.104;2023-12-20T01:12:57;9.80;;;6.40;;
70694;SDS011;58269;52.246;21.104;2023-12-20T01:14:59;8.50;;;6.30;;
70694;SDS011;58269;52.246;21.104;2023-12-20T01:17:01;8.80;;;7.00;;
70694;SDS011;58269;52.246;21.104;2023-12-20T01:19:03;10.20;;;7.00;;
70694;SDS011;58269;52.246;21.104;2023-12-20T01:21:05;9.70;;;6.70;;
70694;SDS011;58269;52.246;21.104;2023-12-20T01:23:07;9.80;;;6.90;;
70694;SDS011;58269;52.246;21.104;2023-12-20T01:25:08;9.20;;;6.50;;
70694;SDS011;58269;52.246;21.104;2023-12-20T01:27:10;8.90;;;7.00;;
70694;SDS011;58269;52.246;21.104;2023-12-20T01:29:12;8.20;;;5.60;;
70694;SDS011;58269;52.246;21.104;2023-12-20T01:31:15;8.80;;;6.60;;
70694;SDS011;58269;52.246;21.104;2023-12-20T01:33:17;11.10;;;7.00;;
70694;SDS011;58269;52.246;21.104;2023-12-20T01:35:19;9.70;;;6.60;;
70694;SDS011;58269;52.246;21.104;2023-12-20T01:37:21;9.80;;;6.60;;
70694;SDS011;58269;52.246;21.104;2023-12-20T01:39:25;9.30;;;6.90;;
70694;SDS011;58269;52.246;21.104;2023-12-20T01:41:26;10.40;;;6.60;;
70694;SDS011;58269;52.246;21.104;2023-12-20T01:43:29;9.30;;;6.50;;
70694;SDS011;58269;52.246;21.104;2023-12-20T01:45:31;8.90;;;6.90;;
70694;SDS011;58269;52.246;21.104;2023-12-20T01:47:33;10.10;;;6.20;;
70694;SDS011;58269;52.246;21.104;2023-12-20T01:49:35;8.20;;;6.10;;
70694;SDS011;58269;52.246;21.104;2023-12-20T01:51:37;7.30;;;6.10;;
70694;SDS011;58269;52.246;21.104;2023-12-20T01:53:40;7.40;;;5.30;;
70694;SDS011;58269;52.246;21.104;2023-12-20T01:55:42;7.80;;;6.20;;
70694;SDS011;58269;52.246;21.104;2023-12-20T01:57:45;7.30;;;6.40;;
70694;SDS011;58269;52.246;21.104;2023-12-20T01:59:48;9.10;;;6.40;;
70694;SDS011;58269;52.246;21.104;2023-12-20T02:01:50;7.10;;;5.80;;
70694;SDS011;58269;52.246;21.104;2023-12-20T02:03:52;6.90;;;5.30;;
70694;SDS011;58269;52.246;21.104;2023-12-20T02:05:54;8.00;;;6.30;;
70694;SDS011;58269;52.246;21.104;2023-12-20T02:07:56;6.90;;;5.50;;
70694;SDS011;58269;52.246;21.104;2023-12-20T02:09:58;6.80;;;5.80;;
70694;SDS011;58269;52.246;21.104;2023-12-20T02:11:59;6.50;;;5.30;;
70694;SDS011;58269;52.246;21.104;2023-12-20T02:14:01;6.00;;;5.00;;
70694;SDS011;58269;52.246;21.104;2023-12-20T02:16:03;7.70;;;5.50;;
70694;SDS011;58269;52.246;21.104;2023-12-20T02:18:05;7.10;;;5.80;;
70694;SDS011;58269;52.246;21.104;2023-12-20T02:20:07;5.90;;;4.90;;
70694;SDS011;58269;52.246;21.104;2023-12-20T02:22:09;6.90;;;5.00;;
70694;SDS011;58269;52.246;21.104;2023-12-20T02:24:14;6.90;;;5.20;;
70694;SDS011;58269;52.246;21.104;2023-12-20T02:26:16;5.70;;;4.40;;
70694;SDS011;58269;52.246;21.104;2023-12-20T02:28:18;6.00;;;5.00;;
70694;SDS011;58269;52.246;21.104;2023-12-20T02:30:20;5.90;;;5.20;;
70694;SDS011;58269;52.246;21.104;2023-12-20T02:32:22;5.80;;;4.40;;
70694;SDS011;58269;52.246;21.104;2023-12-20T02:34:24;5.10;;;3.40;;
70694;SDS011;58269;52.246;21.104;2023-12-20T02:36:26;4.70;;;3.10;;
70694;SDS011;58269;52.246;21.104;2023-12-20T02:38:28;6.20;;;4.10;;
70694;SDS011;58269;52.246;21.104;2023-12-20T02:40:29;5.00;;;3.70;;
70694;SDS011;58269;52.246;21.104;2023-12-20T02:42:31;3.80;;;2.90;;
70694;SDS011;58269;52.246;21.104;2023-12-20T02:44:33;6.00;;;3.50;;
70694;SDS011;58269;52.246;21.104;2023-12-20T02:46:35;4.80;;;3.20;;
70694;SDS011;58269;52.246;21.104;2023-12-20T02:48:37;4.70;;;3.40;;
70694;SDS011;58269;52.246;21.104;2023-12-20T02:50:39;4.00;;;3.10;;
70694;SDS011;58269;52.246;21.104;2023-12-20T02:52:42;4.20;;;2.80;;
70694;SDS011;58269;52.246;21.104;2023-12-20T02:54:46;4.40;;;2.60;;
70694;SDS011;58269;52.246;21.104;2023-12-20T02:56:48;4.20;;;3.00;;
70694;SDS011;58269;52.246;21.104;2023-12-20T02:58:50;4.10;;;2.60;;
70694;SDS011;58269;52.246;21.104;2023-12-20T03:00:51;3.40;;;2.60;;
70694;SDS011;58269;52.246;21.104;2023-12-20T03:02:53;3.20;;;2.50;;
70694;SDS011;58269;52.246;21.104;2023-12-20T03:04:55;3.50;;;2.80;;
70694;SDS011;58269;52.246;21.104;2023-12-20T03:06:57;4.60;;;3.40;;
70694;SDS011;58269;52.246;21.104;2023-12-20T03:08:59;6.10;;;3.20;;
70694;SDS011;58269;52.246;21.104;2023-12-20T03:11:00;3.40;;;2.90;;
70694;SDS011;58269;52.246;21.104;2023-12-20T03:13:02;3.60;;;3.00;;
70694;SDS011;58269;52.246;21.104;2023-12-20T03:15:04;5.80;;;4.30;;
70694;SDS011;58269;52.246;21.104;2023-12-20T03:17:06;4.20;;;3.20;;
70694;SDS011;58269;52.246;21.104;2023-12-20T03:19:08;4.80;;;3.70;;
70694;SDS011;58269;52.246;21.104;2023-12-20T03:21:10;4.70;;;2.90;;
70694;SDS011;58269;52.246;21.104;2023-12-20T03:23:12;5.20;;;3.50;;
70694;SDS011;58269;52.246;21.104;2023-12-20T03:25:13;4.10;;;3.10;;
70694;SDS011;58269;52.246;21.104;2023-12-20T03:27:15;3.70;;;3.20;;
70694;SDS011;58269;52.246;21.104;2023-12-20T03:29:18;3.50;;;3.10;;
70694;SDS011;58269;52.246;21.104;2023-12-20T03:31:19;3.90;;;3.00;;
70694;SDS011;58269;52.246;21.104;2023-12-20T03:33:22;4.20;;;2.80;;
70694;SDS011;58269;52.246;21.104;2023-12-20T03:35:24;4.40;;;3.20;;
70694;SDS011;58269;52.246;21.104;2023-12-20T03:37:26;5.40;;;3.00;;
70694;SDS011;58269;52.246;21.104;2023-12-20T03:39:27;4.10;;;3.10;;
70694;SDS011;58269;52.246;21.104;2023-12-20T03:41:29;4.20;;;2.70;;
70694;SDS011;58269;52.246;21.104;2023-12-20T03:43:31;4.20;;;3.50;;
70694;SDS011;58269;52.246;21.104;2023-12-20T03:45:33;3.90;;;3.10;;
70694;SDS011;58269;52.246;21.104;2023-12-20T03:47:34;4.90;;;3.80;;
70694;SDS011;58269;52.246;21.104;2023-12-20T03:49:36;4.20;;;3.30;;
70694;SDS011;58269;52.246;21.104;2023-12-20T03:51:39;4.10;;;3.60;;
70694;SDS011;58269;52.246;21.104;2023-12-20T03:53:41;4.60;;;3.40;;
70694;SDS011;58269;52.246;21.104;2023-12-20T03:55:43;3.90;;;3.00;;
70694;SDS011;58269;52.246;21.104;2023-12-20T03:57:45;4.30;;;3.60;;
70694;SDS011;58269;52.246;21.104;2023-12-20T03:59:47;3.90;;;3.50;;
70694;SDS011;58269;52.246;21.104;2023-12-20T04:01:48;3.50;;;3.00;;
70694;SDS011;58269;52.246;21.104;2023-12-20T04:03:50;4.10;;;2.90;;
70694;SDS011;58269;52.246;21.104;2023-12-20T04:05:52;3.90;;;3.30;;
70694;SDS011;58269;52.246;21.104;2023-12-20T04:07:54;4.80;;;3.40;;
70694;SDS011;58269;52.246;21.104;2023-12-20T04:09:55;5.00;;;3.60;;
70694;SDS011;58269;52.246;21.104;2023-12-20T04:11:57;3.90;;;3.40;;
70694;SDS011;58269;52.246;21.104;2023-12-20T04:13:59;4.30;;;3.70;;
70694;SDS011;58269;52.246;21.104;2023-12-20T04:16:02;4.70;;;3.90;;
70694;SDS011;58269;52.246;21.104;2023-12-20T04:18:04;4.20;;;3.80;;
70694;SDS011;58269;52.246;21.104;2023-12-20T04:20:06;3.80;;;3.40;;
70694;SDS011;58269;52.246;21.104;2023-12-20T04:22:08;5.00;;;3.50;;
70694;SDS011;58269;52.246;21.104;2023-12-20T04:24:10;4.20;;;3.70;;
70694;SDS011;58269;52.246;21.104;2023-12-20T04:26:12;4.10;;;3.30;;
70694;SDS011;58269;52.246;21.104;2023-12-20T04:28:14;3.70;;;3.30;;
70694;SDS011;58269;52.246;21.104;2023-12-20T04:30:15;4.60;;;3.30;;
70694;SDS011;58269;52.246;21.104;2023-12-20T04:32:17;3.90;;;3.60;;
70694;SDS011;58269;52.246;21.104;2023-12-20T04:34:20;4.20;;;3.70;;
70694;SDS011;58269;52.246;21.104;2023-12-20T04:36:23;5.60;;;3.40;;
70694;SDS011;58269;52.246;21.104;2023-12-20T04:38:26;4.00;;;3.50;;
70694;SDS011;58269;52.246;21.104;2023-12-20T04:40:28;4.50;;;3.70;;
70694;SDS011;58269;52.246;21.104;2023-12-20T04:42:29;5.00;;;3.70;;
70694;SDS011;58269;52.246;21.104;2023-12-20T04:44:31;4.60;;;3.90;;
70694;SDS011;58269;52.246;21.104;2023-12-20T04:46:33;4.70;;;4.20;;
70694;SDS011;58269;52.246;21.104;2023-12-20T04:48:35;4.70;;;3.90;;
70694;SDS011;58269;52.246;21.104;2023-12-20T04:50:36;3.60;;;3.30;;
70694;SDS011;58269;52.246;21.104;2023-12-20T04:52:38;4.80;;;3.50;;
70694;SDS011;58269;52.246;21.104;2023-12-20T04:54:40;5.30;;;4.00;;
70694;SDS011;58269;52.246;21.104;2023-12-20T04:56:42;6.10;;;4.10;;
70694;SDS011;58269;52.246;21.104;2023-12-20T04:58:44;5.70;;;4.20;;
70694;SDS011;58269;52.246;21.104;2023-12-20T05:00:46;4.50;;;3.80;;
70694;SDS011;58269;52.246;21.104;2023-12-20T05:02:47;4.60;;;4.00;;
70694;SDS011;58269;52.246;21.104;2023-12-20T05:04:49;4.70;;;4.00;;
70694;SDS011;58269;52.246;21.104;2023-12-20T05:06:51;7.10;;;4.10;;
70694;SDS011;58269;52.246;21.104;2023-12-20T05:08:53;5.00;;;4.10;;
70694;SDS011;58269;52.246;21.104;2023-12-20T05:10:54;5.30;;;4.10;;
70694;SDS011;58269;52.246;21.104;2023-12-20T05:12:56;5.90;;;3.90;;
70694;SDS011;58269;52.246;21.104;2023-12-20T05:14:58;5.50;;;4.40;;
70694;SDS011;58269;52.246;21.104;2023-12-20T05:17:00;5.90;;;4.50;;
70694;SDS011;58269;52.246;21.104;2023-12-20T05:21:07;5.10;;;3.80;;
70694;SDS011;58269;52.246;21.104;2023-12-20T05:23:09;5.90;;;4.50;;
70694;SDS011;58269;52.246;21.104;2023-12-20T05:25:11;6.40;;;4.80;;
70694;SDS011;58269;52.246;21.104;2023-12-20T05:27:13;5.10;;;4.30;;
70694;SDS011;58269;52.246;21.104;2023-12-20T05:29:15;5.60;;;4.50;;
70694;SDS011;58269;52.246;21.104;2023-12-20T05:31:16;6.00;;;4.90;;
70694;SDS011;58269;52.246;21.104;2023-12-20T05:33:18;6.20;;;5.20;;
70694;SDS011;58269;52.246;21.104;2023-12-20T05:35:20;7.00;;;4.80;;
70694;SDS011;58269;52.246;21.104;2023-12-20T05:37:23;8.80;;;5.40;;
70694;SDS011;58269;52.246;21.104;2023-12-20T05:39:25;7.90;;;5.10;;
70694;SDS011;58269;52.246;21.104;2023-12-20T05:41:27;8.30;;;5.30;;
70694;SDS011;58269;52.246;21.104;2023-12-20T05:43:29;7.70;;;4.90;;
70694;SDS011;58269;52.246;21.104;2023-12-20T05:45:30;6.20;;;5.20;;
70694;SDS011;58269;52.246;21.104;2023-12-20T05:47:32;5.70;;;4.40;;
70694;SDS011;58269;52.246;21.104;2023-12-20T05:49:34;5.90;;;4.70;;
70694;SDS011;58269;52.246;21.104;2023-12-20T05:51:36;5.90;;;4.80;;
70694;SDS011;58269;52.246;21.104;2023-12-20T05:53:38;4.80;;;4.30;;
70694;SDS011;58269;52.246;21.104;2023-12-20T05:55:40;6.20;;;4.80;;
70694;SDS011;58269;52.246;21.104;2023-12-20T05:57:42;5.00;;;4.50;;
70694;SDS011;58269;52.246;21.104;2023-12-20T05:59:44;6.20;;;4.40;;
70694;SDS011;58269;52.246;21.104;2023-12-20T06:01:46;4.90;;;4.40;;
70694;SDS011;58269;52.246;21.104;2023-12-20T06:03:48;4.60;;;4.00;;
70694;SDS011;58269;52.246;21.104;2023-12-20T06:05:50;4.70;;;4.10;;
70694;SDS011;58269;52.246;21.104;2023-12-20T06:07:51;4.60;;;4.10;;
70694;SDS011;58269;52.246;21.104;2023-12-20T06:09:53;6.50;;;5.00;;
70694;SDS011;58269;52.246;21.104;2023-12-20T06:11:56;6.50;;;4.60;;
70694;SDS011;58269;52.246;21.104;2023-12-20T06:13:58;5.50;;;4.20;;
70694;SDS011;58269;52.246;21.104;2023-12-20T06:15:59;5.40;;;4.10;;
70694;SDS011;58269;52.246;21.104;2023-12-20T06:18:02;6.10;;;4.50;;
70694;SDS011;58269;52.246;21.104;2023-12-20T06:20:04;5.10;;;4.60;;
70694;SDS011;58269;52.246;21.104;2023-12-20T06:22:09;9.20;;;5.10;;
70694;SDS011;58269;52.246;21.104;2023-12-20T06:24:10;8.60;;;5.30;;
70694;SDS011;58269;52.246;21.104;2023-12-20T06:26:12;5.30;;;4.80;;
70694;SDS011;58269;52.246;21.104;2023-12-20T06:28:14;6.00;;;5.30;;
70694;SDS011;58269;52.246;21.104;2023-12-20T06:30:16;6.50;;;4.50;;
70694;SDS011;58269;52.246;21.104;2023-12-20T06:32:18;4.60;;;3.70;;
70694;SDS011;58269;52.246;21.104;2023-12-20T06:34:20;6.30;;;4.40;;
70694;SDS011;58269;52.246;21.104;2023-12-20T06:36:22;5.40;;;4.20;;
70694;SDS011;58269;52.246;21.104;2023-12-20T06:38:23;5.70;;;4.20;;
70694;SDS011;58269;52.246;21.104;2023-12-20T06:40:25;6.30;;;4.20;;
70694;SDS011;58269;52.246;21.104;2023-12-20T06:42:27;6.00;;;4.10;;
70694;SDS011;58269;52.246;21.104;2023-12-20T06:44:29;5.40;;;4.30;;
70694;SDS011;58269;52.246;21.104;2023-12-20T06:46:30;5.80;;;4.30;;
70694;SDS011;58269;52.246;21.104;2023-12-20T06:48:32;6.10;;;4.80;;
70694;SDS011;58269;52.246;21.104;2023-12-20T06:50:34;4.90;;;4.00;;
70694;SDS011;58269;52.246;21.104;2023-12-20T06:52:36;6.20;;;4.20;;
70694;SDS011;58269;52.246;21.104;2023-12-20T06:54:37;5.50;;;4.40;;
70694;SDS011;58269;52.246;21.104;2023-12-20T06:56:39;5.90;;;4.30;;
70694;SDS011;58269;52.246;21.104;2023-12-20T06:58:42;5.40;;;3.80;;
70694;SDS011;58269;52.246;21.104;2023-12-20T07:00:44;5.30;;;4.30;;
70694;SDS011;58269;52.246;21.104;2023-12-20T07:02:46;5.90;;;3.80;;
70694;SDS011;58269;52.246;21.104;2023-12-20T07:04:49;5.30;;;4.10;;
70694;SDS011;58269;52.246;21.104;2023-12-20T07:06:50;5.80;;;4.30;;
70694;SDS011;58269;52.246;21.104;2023-12-20T07:08:58;4.30;;;3.80;;
70694;SDS011;58269;52.246;21.104;2023-12-20T07:11:00;6.80;;;5.20;;
70694;SDS011;58269;52.246;21.104;2023-12-20T07:13:02;4.00;;;3.60;;
70694;SDS011;58269;52.246;21.104;2023-12-20T07:15:04;5.90;;;4.30;;
70694;SDS011;58269;52.246;21.104;2023-12-20T07:17:07;13.30;;;7.70;;
70694;SDS011;58269;52.246;21.104;2023-12-20T07:19:12;5.70;;;4.40;;
70694;SDS011;58269;52.246;21.104;2023-12-20T07:21:14;5.80;;;4.30;;
70694;SDS011;58269;52.246;21.104;2023-12-20T07:23:17;5.70;;;4.50;;
70694;SDS011;58269;52.246;21.104;2023-12-20T07:25:18;6.70;;;5.00;;
70694;SDS011;58269;52.246;21.104;2023-12-20T07:27:21;6.50;;;4.80;;
70694;SDS011;58269;52.246;21.104;2023-12-20T07:29:23;7.20;;;4.80;;
70694;SDS011;58269;52.246;21.104;2023-12-20T07:31:25;4.30;;;3.70;;
70694;SDS011;58269;52.246;21.104;2023-12-20T07:33:27;5.40;;;4.60;;
70694;SDS011;58269;52.246;21.104;2023-12-20T07:35:28;6.50;;;4.40;;
70694;SDS011;58269;52.246;21.104;2023-12-20T07:37:30;6.50;;;4.60;;
70694;SDS011;58269;52.246;21.104;2023-12-20T07:39:32;7.00;;;4.80;;
70694;SDS011;58269;52.246;21.104;2023-12-20T07:41:36;6.40;;;4.90;;
70694;SDS011;58269;52.246;21.104;2023-12-20T07:43:38;5.40;;;4.80;;
70694;SDS011;58269;52.246;21.104;2023-12-20T07:45:39;6.80;;;5.10;;
70694;SDS011;58269;52.246;21.104;2023-12-20T07:47:41;6.60;;;5.10;;
70694;SDS011;58269;52.246;21.104;2023-12-20T07:49:43;8.60;;;5.00;;
70694;SDS011;58269;52.246;21.104;2023-12-20T07:51:46;6.10;;;5.00;;
70694;SDS011;58269;52.246;21.104;2023-12-20T07:53:47;6.70;;;4.90;;
70694;SDS011;58269;52.246;21.104;2023-12-20T07:55:49;8.50;;;5.10;;
70694;SDS011;58269;52.246;21.104;2023-12-20T07:57:53;6.40;;;4.80;;
70694;SDS011;58269;52.246;21.104;2023-12-20T07:59:55;9.30;;;4.30;;
70694;SDS011;58269;52.246;21.104;2023-12-20T08:01:57;4.60;;;4.20;;
70694;SDS011;58269;52.246;21.104;2023-12-20T08:03:59;4.80;;;3.80;;
70694;SDS011;58269;52.246;21.104;2023-12-20T08:06:01;5.90;;;4.10;;
70694;SDS011;58269;52.246;21.104;2023-12-20T08:08:04;6.90;;;4.70;;
70694;SDS011;58269;52.246;21.104;2023-12-20T08:10:06;6.60;;;4.60;;
70694;SDS011;58269;52.246;21.104;2023-12-20T08:12:08;8.10;;;4.30;;
70694;SDS011;58269;52.246;21.104;2023-12-20T08:14:11;5.20;;;4.20;;
70694;SDS011;58269;52.246;21.104;2023-12-20T08:16:13;6.30;;;3.90;;
70694;SDS011;58269;52.246;21.104;2023-12-20T08:18:16;5.30;;;4.20;;
70694;SDS011;58269;52.246;21.104;2023-12-20T08:20:18;5.30;;;4.10;;
70694;SDS011;58269;52.246;21.104;2023-12-20T08:22:20;5.90;;;4.50;;
70694;SDS011;58269;52.246;21.104;2023-12-20T08:24:21;5.30;;;4.30;;
70694;SDS011;58269;52.246;21.104;2023-12-20T08:26:23;6.50;;;3.60;;
70694;SDS011;58269;52.246;21.104;2023-12-20T08:28:25;6.50;;;4.40;;
70694;SDS011;58269;52.246;21.104;2023-12-20T08:30:27;5.80;;;4.40;;
70694;SDS011;58269;52.246;21.104;2023-12-20T08:32:29;4.60;;;4.00;;
70694;SDS011;58269;52.246;21.104;2023-12-20T08:34:31;5.90;;;4.30;;
70694;SDS011;58269;52.246;21.104;2023-12-20T08:36:32;4.60;;;3.90;;
70694;SDS011;58269;52.246;21.104;2023-12-20T08:38:34;4.40;;;4.00;;
70694;SDS011;58269;52.246;21.104;2023-12-20T08:40:37;5.50;;;3.60;;
70694;SDS011;58269;52.246;21.104;2023-12-20T08:42:39;4.50;;;3.40;;
70694;SDS011;58269;52.246;21.104;2023-12-20T08:44:40;4.60;;;3.60;;
70694;SDS011;58269;52.246;21.104;2023-12-20T08:46:42;5.30;;;4.00;;
70694;SDS011;58269;52.246;21.104;2023-12-20T08:48:44;4.50;;;3.40;;
70694;SDS011;58269;52.246;21.104;2023-12-20T08:50:46;3.90;;;3.30;;
70694;SDS011;58269;52.246;21.104;2023-12-20T08:52:50;5.70;;;4.20;;
70694;SDS011;58269;52.246;21.104;2023-12-20T08:54:51;4.30;;;3.50;;
70694;SDS011;58269;52.246;21.104;2023-12-20T08:56:54;4.90;;;3.50;;
70694;SDS011;58269;52.246;21.104;2023-12-20T08:58:56;5.30;;;3.90;;
70694;SDS011;58269;52.246;21.104;2023-12-20T09:00:58;5.30;;;3.70;;
70694;SDS011;58269;52.246;21.104;2023-12-20T09:03:01;4.70;;;3.40;;
70694;SDS011;58269;52.246;21.104;2023-12-20T09:05:03;4.90;;;3.90;;
70694;SDS011;58269;52.246;21.104;2023-12-20T09:07:05;5.70;;;4.60;;
70694;SDS011;58269;52.246;21.104;2023-12-20T09:09:08;6.30;;;3.80;;
70694;SDS011;58269;52.246;21.104;2023-12-20T09:11:15;5.90;;;3.70;;
70694;SDS011;58269;52.246;21.104;2023-12-20T09:13:16;5.40;;;4.30;;
70694;SDS011;58269;52.246;21.104;2023-12-20T09:15:18;6.10;;;3.70;;
70694;SDS011;58269;52.246;21.104;2023-12-20T09:17:20;6.00;;;3.80;;
70694;SDS011;58269;52.246;21.104;2023-12-20T09:19:24;5.90;;;3.40;;
70694;SDS011;58269;52.246;21.104;2023-12-20T09:21:26;9.00;;;5.00;;
70694;SDS011;58269;52.246;21.104;2023-12-20T09:23:27;4.30;;;3.30;;
70694;SDS011;58269;52.246;21.104;2023-12-20T09:25:29;6.20;;;3.50;;
70694;SDS011;58269;52.246;21.104;2023-12-20T09:27:31;4.90;;;3.60;;
70694;SDS011;58269;52.246;21.104;2023-12-20T09:29:33;4.80;;;3.60;;
70694;SDS011;58269;52.246;21.104;2023-12-20T09:31:36;5.80;;;3.10;;
70694;SDS011;58269;52.246;21.104;2023-12-20T09:33:38;5.50;;;4.00;;
70694;SDS011;58269;52.246;21.104;2023-12-20T09:35:40;3.90;;;3.50;;
70694;SDS011;58269;52.246;21.104;2023-12-20T09:37:41;4.40;;;3.40;;
70694;SDS011;58269;52.246;21.104;2023-12-20T09:39:46;6.20;;;3.70;;
70694;SDS011;58269;52.246;21.104;2023-12-20T09:42:03;35.50;;;23.50;;
70694;SDS011;58269;52.246;21.104;2023-12-20T09:44:05;46.80;;;28.10;;
70694;SDS011;58269;52.246;21.104;2023-12-20T09:46:08;12.50;;;8.40;;
70694;SDS011;58269;52.246;21.104;2023-12-20T09:48:13;10.50;;;6.50;;
70694;SDS011;58269;52.246;21.104;2023-12-20T09:50:20;7.10;;;5.30;;
70694;SDS011;58269;52.246;21.104;2023-12-20T09:52:22;7.60;;;5.10;;
70694;SDS011;58269;52.246;21.104;2023-12-20T09:54:25;6.30;;;4.50;;
70694;SDS011;58269;52.246;21.104;2023-12-20T09:56:28;6.20;;;4.50;;
70694;SDS011;58269;52.246;21.104;2023-12-20T09:58:31;6.80;;;4.80;;
70694;SDS011;58269;52.246;21.104;2023-12-20T10:00:33;5.70;;;4.60;;
70694;SDS011;58269;52.246;21.104;2023-12-20T10:02:35;6.20;;;4.90;;
70694;SDS011;58269;52.246;21.104;2023-12-20T10:04:37;5.60;;;4.20;;
70694;SDS011;58269;52.246;21.104;2023-12-20T10:06:40;4.60;;;4.00;;
70694;SDS011;58269;52.246;21.104;2023-12-20T10:08:44;4.20;;;3.40;;
70694;SDS011;58269;52.246;21.104;2023-12-20T10:10:46;6.40;;;3.90;;
70694;SDS011;58269;52.246;21.104;2023-12-20T10:13:07;5.20;;;3.10;;
70694;SDS011;58269;52.246;21.104;2023-12-20T10:17:12;4.20;;;3.10;;
70694;SDS011;58269;52.246;21.104;2023-12-20T10:19:16;4.40;;;3.10;;
70694;SDS011;58269;52.246;21.104;2023-12-20T10:21:18;4.30;;;3.30;;
70694;SDS011;58269;52.246;21.104;2023-12-20T10:23:20;4.70;;;2.70;;
70694;SDS011;58269;52.246;21.104;2023-12-20T10:25:23;4.00;;;3.30;;
70694;SDS011;58269;52.246;21.104;2023-12-20T10:27:25;4.30;;;3.20;;
70694;SDS011;58269;52.246;21.104;2023-12-20T10:29:27;4.00;;;3.10;;
70694;SDS011;58269;52.246;21.104;2023-12-20T10:31:30;5.40;;;3.50;;
70694;SDS011;58269;52.246;21.104;2023-12-20T10:33:33;3.80;;;3.20;;
70694;SDS011;58269;52.246;21.104;2023-12-20T10:35:35;4.50;;;2.80;;
70694;SDS011;58269;52.246;21.104;2023-12-20T10:37:38;3.80;;;3.10;;
70694;SDS011;58269;52.246;21.104;2023-12-20T10:39:40;4.10;;;3.20;;
70694;SDS011;58269;52.246;21.104;2023-12-20T10:41:44;3.00;;;2.50;;
70694;SDS011;58269;52.246;21.104;2023-12-20T10:43:47;4.20;;;3.20;;
70694;SDS011;58269;52.246;21.104;2023-12-20T10:45:49;3.40;;;3.10;;
70694;SDS011;58269;52.246;21.104;2023-12-20T10:47:51;3.80;;;3.20;;
70694;SDS011;58269;52.246;21.104;2023-12-20T10:49:53;5.30;;;3.60;;
70694;SDS011;58269;52.246;21.104;2023-12-20T10:51:56;4.30;;;3.10;;
70694;SDS011;58269;52.246;21.104;2023-12-20T10:53:59;4.80;;;3.30;;
70694;SDS011;58269;52.246;21.104;2023-12-20T10:56:00;3.70;;;3.20;;
70694;SDS011;58269;52.246;21.104;2023-12-20T10:58:06;4.10;;;3.30;;
70694;SDS011;58269;52.246;21.104;2023-12-20T11:00:09;3.00;;;2.50;;
70694;SDS011;58269;52.246;21.104;2023-12-20T11:02:16;5.60;;;3.30;;
70694;SDS011;58269;52.246;21.104;2023-12-20T11:04:25;3.90;;;3.40;;
70694;SDS011;58269;52.246;21.104;2023-12-20T11:06:54;3.40;;;3.10;;
70694;SDS011;58269;52.246;21.104;2023-12-20T11:14:08;7.60;;;4.60;;
70694;SDS011;58269;52.246;21.104;2023-12-20T11:16:22;6.40;;;4.90;;
70694;SDS011;58269;52.246;21.104;2023-12-20T11:18:30;6.30;;;4.10;;
70694;SDS011;58269;52.246;21.104;2023-12-20T11:20:38;6.60;;;3.70;;
70694;SDS011;58269;52.246;21.104;2023-12-20T11:22:51;4.60;;;4.00;;
70694;SDS011;58269;52.246;21.104;2023-12-20T11:24:54;5.20;;;3.20;;
70694;SDS011;58269;52.246;21.104;2023-12-20T11:27:04;7.10;;;4.20;;
70694;SDS011;58269;52.246;21.104;2023-12-20T11:31:39;4.10;;;3.40;;
70694;SDS011;58269;52.246;21.104;2023-12-20T11:33:42;3.50;;;3.00;;
70694;SDS011;58269;52.246;21.104;2023-12-20T11:35:45;3.70;;;3.20;;
70694;SDS011;58269;52.246;21.104;2023-12-20T11:37:47;4.40;;;3.30;;
70694;SDS011;58269;52.246;21.104;2023-12-20T11:39:55;3.30;;;2.80;;
70694;SDS011;58269;52.246;21.104;2023-12-20T11:42:06;4.30;;;3.10;;
70694;SDS011;58269;52.246;21.104;2023-12-20T11:44:09;3.50;;;2.80;;
70694;SDS011;58269;52.246;21.104;2023-12-20T11:46:12;4.50;;;3.90;;
70694;SDS011;58269;52.246;21.104;2023-12-20T11:48:14;3.60;;;2.90;;
70694;SDS011;58269;52.246;21.104;2023-12-20T11:50:16;4.10;;;3.20;;
70694;SDS011;58269;52.246;21.104;2023-12-20T11:52:18;4.40;;;3.40;;
70694;SDS011;58269;52.246;21.104;2023-12-20T11:54:20;3.30;;;2.60;;
70694;SDS011;58269;52.246;21.104;2023-12-20T11:56:22;3.50;;;3.10;;
70694;SDS011;58269;52.246;21.104;2023-12-20T11:58:25;3.40;;;3.10;;
70694;SDS011;58269;52.246;21.104;2023-12-20T12:00:27;4.40;;;2.80;;
70694;SDS011;58269;52.246;21.104;2023-12-20T12:02:29;4.40;;;2.70;;
70694;SDS011;58269;52.246;21.104;2023-12-20T12:04:31;4.60;;;3.10;;
70694;SDS011;58269;52.246;21.104;2023-12-20T12:06:33;3.40;;;2.70;;
70694;SDS011;58269;52.246;21.104;2023-12-20T12:08:35;4.10;;;3.20;;
70694;SDS011;58269;52.246;21.104;2023-12-20T12:10:38;3.80;;;3.00;;
70694;SDS011;58269;52.246;21.104;2023-12-20T12:12:39;4.00;;;3.10;;
70694;SDS011;58269;52.246;21.104;2023-12-20T12:14:41;8.30;;;4.10;;
70694;SDS011;58269;52.246;21.104;2023-12-20T12:16:43;5.30;;;3.80;;
70694;SDS011;58269;52.246;21.104;2023-12-20T12:18:45;8.00;;;4.10;;